Time;durP1;ratioP1;P1;durP2;ratioP2;P2;SDS_P1;SDS_P2;PMS_P1;PMS_P2;Temp;Humidity;BMP_temperature;BMP_pressure;BME280_temperature;BME280_humidity;BME280_pressure;Samples;Min_cycle;Max_cycle;Signal;HPM_P1;HPM_P2
2023/03/05 00:01:24;;;;;;;12.40;2.28;;;;;;;5.61;77.23;101652.97;4963432;28;20488;-66
2023/03/05 00:03:51;;;;;;;6.93;2.40;;;;;;;5.59;76.87;101658.06;4966706;28;20158;-68
2023/03/05 00:06:18;;;;;;;14.25;3.17;;;;;;;5.55;77.39;101661.38;4973859;28;20056;-68
2023/03/05 00:08:44;;;;;;;10.57;2.90;;;;;;;5.53;77.62;101657.03;4972879;28;20050;-69
2023/03/05 00:11:11;;;;;;;9.43;3.05;;;;;;;5.53;77.42;101657.03;4972972;28;20042;-69
2023/03/05 00:13:37;;;;;;;12.68;2.83;;;;;;;5.50;77.63;101662.06;4973945;28;20088;-69
2023/03/05 00:16:08;;;;;;;12.10;3.30;;;;;;;5.47;77.75;101662.88;4982833;28;20041;-68
2023/03/05 00:18:33;;;;;;;12.18;3.88;;;;;;;5.47;78.19;101662.88;4977140;28;20070;-69
2023/03/05 00:20:59;;;;;;;12.65;3.25;;;;;;;5.47;78.18;101662.88;4977958;28;20111;-68
2023/03/05 00:23:25;;;;;;;7.88;2.83;;;;;;;5.46;78.15;101661.13;4979438;28;20748;-69
2023/03/05 00:25:50;;;;;;;11.85;3.90;;;;;;;5.45;78.41;101658.53;4976325;28;20366;-68
2023/03/05 00:28:15;;;;;;;11.65;3.20;;;;;;;5.45;78.61;101663.66;4974658;28;20407;-68
2023/03/05 00:30:41;;;;;;;12.95;3.35;;;;;;;5.43;78.44;101662.75;4970896;28;20050;-69
2023/03/05 00:33:08;;;;;;;16.98;3.35;;;;;;;5.38;79.03;101670.31;4976184;28;20124;-69
2023/03/05 00:35:45;;;;;;;8.82;2.35;;;;;;;5.37;78.81;101668.56;4975717;28;20034;-69
2023/03/05 00:38:12;;;;;;;9.77;2.97;;;;;;;5.35;79.27;101662.53;4977049;28;20030;-68
2023/03/05 00:40:39;;;;;;;13.13;3.80;;;;;;;5.36;78.89;101656.59;4974637;28;20030;-69
2023/03/05 00:43:05;;;;;;;8.75;3.40;;;;;;;5.34;78.88;101652.25;4974283;28;20092;-69
2023/03/05 00:45:31;;;;;;;10.18;3.65;;;;;;;5.33;79.48;101653.94;4976668;28;20039;-69
2023/03/05 00:47:57;;;;;;;14.98;4.10;;;;;;;5.31;79.05;101655.59;4970840;28;20104;-66
2023/03/05 00:50:22;;;;;;;12.57;4.93;;;;;;;5.33;78.63;101650.50;4978228;28;20476;-66
2023/03/05 00:52:48;;;;;;;9.85;3.83;;;;;;;5.32;79.46;101639.38;4979622;28;20121;-66
2023/03/05 00:55:13;;;;;;;13.93;3.67;;;;;;;5.32;79.62;101639.38;4980421;28;20053;-66
2023/03/05 00:57:38;;;;;;;10.07;3.83;;;;;;;5.30;79.41;101637.63;4976083;28;20043;-66
2023/03/05 01:00:06;;;;;;;18.58;3.70;;;;;;;5.27;78.94;101635.84;4974099;28;20541;-66
2023/03/05 01:02:31;;;;;;;13.02;2.90;;;;;;;5.26;79.12;101634.09;4976063;28;20100;-66
2023/03/05 01:04:57;;;;;;;10.57;3.03;;;;;;;5.25;78.85;101629.78;4982233;28;20038;-66
2023/03/05 01:07:22;;;;;;;9.88;3.25;;;;;;;5.24;78.74;101630.63;4972850;28;20034;-66
2023/03/05 01:09:47;;;;;;;17.10;4.78;;;;;;;5.24;79.21;101620.38;4974382;28;20072;-66
2023/03/05 01:12:13;;;;;;;10.43;3.67;;;;;;;5.22;78.57;101619.44;4975840;28;20042;-65
2023/03/05 01:14:38;;;;;;;15.18;3.28;;;;;;;5.21;79.37;101620.31;4966402;28;20059;-65
2023/03/05 01:17:04;;;;;;;15.95;3.75;;;;;;;5.17;78.48;101611.66;4974809;28;20034;-65
2023/03/05 01:19:29;;;;;;;8.32;3.40;;;;;;;5.18;79.18;101618.53;4995543;28;20051;-65
2023/03/05 01:21:55;;;;;;;7.22;2.28;;;;;;;5.17;78.82;101614.22;4977202;28;20454;-66
2023/03/05 01:24:21;;;;;;;10.70;2.72;;;;;;;5.15;78.38;101612.44;4969178;28;20050;-69
2023/03/05 01:26:46;;;;;;;11.98;2.50;;;;;;;5.13;78.15;101608.97;4977069;28;20054;-66
2023/03/05 01:29:12;;;;;;;10.30;2.45;;;;;;;5.12;78.27;101605.56;4976473;28;20034;-68
2023/03/05 01:31:37;;;;;;;11.50;2.42;;;;;;;5.11;78.77;101606.38;4975411;28;20878;-68
2023/03/05 01:34:03;;;;;;;8.27;2.10;;;;;;;5.11;79.03;101597.81;4969086;28;20698;-69
2023/03/05 01:36:29;;;;;;;12.68;2.80;;;;;;;5.08;78.67;101596.03;4974329;28;20046;-69
2023/03/05 01:38:54;;;;;;;13.45;3.25;;;;;;;5.09;78.49;101599.47;4973940;28;20105;-69
2023/03/05 01:41:20;;;;;;;10.35;2.53;;;;;;;5.06;78.05;101591.69;4969112;28;20097;-69
2023/03/05 01:43:46;;;;;;;12.57;2.58;;;;;;;5.07;78.39;101590.88;4976044;28;20041;-69
2023/03/05 01:46:12;;;;;;;9.50;2.03;;;;;;;5.06;78.12;101595.13;4975296;28;20097;-69
2023/03/05 01:48:40;;;;;;;9.25;2.28;;;;;;;5.06;77.87;101589.13;4974499;28;20074;-69
2023/03/05 01:51:06;;;;;;;9.43;2.53;;;;;;;5.05;77.68;101582.25;4972009;28;20039;-65
2023/03/05 01:53:31;;;;;;;14.93;2.90;;;;;;;5.04;77.95;101578.00;4977793;28;20100;-66
2023/03/05 01:55:57;;;;;;;11.02;2.53;;;;;;;5.03;78.53;101569.44;4972924;28;20030;-65
2023/03/05 01:58:24;;;;;;;10.55;2.38;;;;;;;5.04;78.03;101578.00;4970866;28;20464;-66
2023/03/05 02:00:52;;;;;;;12.60;2.50;;;;;;;5.03;78.50;101571.13;4973644;28;20072;-65
2023/03/05 02:03:19;;;;;;;9.05;2.70;;;;;;;5.02;77.69;101570.25;4974564;28;20151;-65
2023/03/05 02:05:44;;;;;;;9.77;2.30;;;;;;;5.01;77.69;101570.22;4931237;28;1165161;-65
2023/03/05 02:08:14;;;;;;;9.02;2.25;;;;;;;5.00;78.30;101556.53;4971027;28;20046;-65
2023/03/05 02:10:43;;;;;;;7.57;2.17;;;;;;;5.01;77.84;101563.38;4971314;28;21027;-65
2023/03/05 02:13:15;;;;;;;15.65;3.67;;;;;;;4.98;77.94;101558.16;4970271;28;20149;-66
2023/03/05 02:15:41;;;;;;;11.98;3.63;;;;;;;5.00;78.27;101555.66;4975285;28;20053;-65
2023/03/05 02:18:08;;;;;;;9.60;2.70;;;;;;;4.99;78.39;101551.34;4978275;28;20050;-65
2023/03/05 02:21:06;;;;;;;11.27;2.58;;;;;;;4.99;78.10;101546.22;4982843;28;21185;-65
2023/03/05 02:23:37;;;;;;;9.35;2.33;;;;;;;4.97;77.43;101551.34;4969759;28;20042;-65
2023/03/05 02:26:06;;;;;;;11.32;3.63;;;;;;;4.99;78.03;101543.66;4979187;28;20101;-66
2023/03/05 02:28:48;;;;;;;10.27;2.45;;;;;;;4.97;78.34;101543.66;4966497;28;20031;-66
2023/03/05 02:31:17;;;;;;;8.80;1.90;;;;;;;4.96;78.00;101539.34;4973917;28;20038;-66
2023/03/05 02:33:43;;;;;;;7.88;1.92;;;;;;;4.96;78.32;101538.47;4980909;28;20062;-67
2023/03/05 02:36:09;;;;;;;10.23;2.20;;;;;;;4.94;77.90;101533.31;4973569;28;20068;-67
2023/03/05 02:38:34;;;;;;;13.27;2.60;;;;;;;4.93;78.30;101529.00;4976087;28;20038;-66
2023/03/05 02:41:00;;;;;;;6.75;2.00;;;;;;;4.92;78.07;101528.97;4982058;28;20018;-66
2023/03/05 02:43:25;;;;;;;8.63;2.75;;;;;;;4.92;77.82;101527.25;4976563;28;20534;-66
2023/03/05 02:45:51;;;;;;;8.68;2.35;;;;;;;4.91;77.58;101520.44;4972850;28;20503;-66
2023/03/05 02:48:16;;;;;;;7.78;2.25;;;;;;;4.94;77.22;101517.94;4975719;28;20548;-66
2023/03/05 02:50:43;;;;;;;6.85;2.30;;;;;;;4.92;77.60;101519.56;4974972;28;20452;-66
2023/03/05 02:53:09;;;;;;;9.18;2.45;;;;;;;4.94;77.19;101514.50;4975613;28;20042;-66
2023/03/05 02:55:34;;;;;;;9.02;2.40;;;;;;;4.92;77.81;101511.06;4974546;28;20104;-66
2023/03/05 02:58:00;;;;;;;16.15;2.22;;;;;;;4.93;77.44;101513.63;4974196;28;20042;-66
2023/03/05 03:00:25;;;;;;;7.32;2.40;;;;;;;4.93;77.03;101516.19;4969329;28;21679;-66
2023/03/05 03:02:51;;;;;;;10.32;2.17;;;;;;;4.93;77.32;101508.50;4974161;28;20042;-66
2023/03/05 03:05:16;;;;;;;9.93;2.42;;;;;;;4.94;77.40;101506.81;4976206;28;20582;-66
2023/03/05 03:07:42;;;;;;;7.47;2.30;;;;;;;4.92;76.93;101501.66;4977529;28;20038;-66
2023/03/05 03:10:08;;;;;;;10.32;2.78;;;;;;;4.95;76.71;101498.31;4982397;28;20185;-65
2023/03/05 03:12:42;;;;;;;10.88;1.90;;;;;;;4.94;76.93;101494.03;4977763;28;20045;-66
2023/03/05 03:15:11;;;;;;;9.88;2.58;;;;;;;4.92;76.35;101491.41;4973662;28;20376;-67
2023/03/05 03:17:37;;;;;;;7.47;2.22;;;;;;;4.95;76.71;101493.22;4973784;28;20130;-67
2023/03/05 03:20:08;;;;;;;12.88;2.22;;;;;;;4.92;76.53;101490.56;4978032;28;20072;-66
2023/03/05 03:22:33;;;;;;;9.95;2.17;;;;;;;4.93;76.01;101485.47;4980635;28;20074;-67
2023/03/05 03:24:59;;;;;;;8.00;2.13;;;;;;;4.90;76.10;101482.81;4976244;28;20153;-67
2023/03/05 03:27:25;;;;;;;6.30;1.80;;;;;;;4.90;75.75;101489.63;4967979;28;20041;-66
2023/03/05 03:29:50;;;;;;;9.15;2.53;;;;;;;4.87;76.53;101487.88;4973307;28;20038;-67
2023/03/05 03:32:16;;;;;;;11.95;2.20;;;;;;;4.86;76.13;101488.72;4973653;28;20030;-66
2023/03/05 03:34:41;;;;;;;6.70;1.73;;;;;;;4.83;76.34;101480.94;4980958;28;20027;-66
2023/03/05 03:37:07;;;;;;;6.97;2.30;;;;;;;4.83;76.00;101480.06;4974218;28;20515;-65
2023/03/05 03:39:33;;;;;;;6.75;1.83;;;;;;;4.82;76.40;101478.34;4974696;28;20125;-65
2023/03/05 03:41:58;;;;;;;7.93;2.00;;;;;;;4.81;76.45;101482.59;4976168;28;20046;-65
2023/03/05 03:44:24;;;;;;;6.88;1.73;;;;;;;4.82;76.30;101488.56;4973144;28;20081;-65
2023/03/05 03:46:50;;;;;;;11.73;2.60;;;;;;;4.82;76.83;101473.22;4977247;28;20034;-65
2023/03/05 03:49:24;;;;;;;6.63;3.03;;;;;;;4.83;76.32;101474.94;4971898;28;20042;-65
2023/03/05 03:51:51;;;;;;;8.18;2.70;;;;;;;4.82;76.34;101470.66;4973262;28;20045;-65
2023/03/05 03:54:17;;;;;;;7.85;2.75;;;;;;;4.82;77.10;101473.22;4975251;28;20081;-64
2023/03/05 03:56:43;;;;;;;4.68;1.80;;;;;;;4.82;76.76;101468.09;4981924;28;20221;-65
2023/03/05 03:59:09;;;;;;;5.00;1.67;;;;;;;4.80;77.42;101474.88;4976925;28;20137;-65
2023/03/05 04:01:34;;;;;;;4.45;1.70;;;;;;;4.79;76.69;101470.56;4983214;28;20213;-65
2023/03/05 04:04:00;;;;;;;13.05;2.40;;;;;;;4.76;76.92;101463.69;4970808;28;20454;-65
2023/03/05 04:06:26;;;;;;;10.85;2.75;;;;;;;4.76;76.99;101457.69;4968476;28;20042;-65
2023/03/05 04:08:51;;;;;;;4.45;1.90;;;;;;;4.75;76.69;101461.06;4968234;28;20639;-70
2023/03/05 04:11:18;;;;;;;5.60;1.77;;;;;;;4.74;76.95;101457.66;4969949;28;20034;-70
2023/03/05 04:13:44;;;;;;;7.90;1.90;;;;;;;4.74;77.30;101456.78;4976093;28;20030;-69
2023/03/05 04:16:10;;;;;;;6.57;1.95;;;;;;;4.73;77.09;101466.16;4967620;28;20055;-70
2023/03/05 04:18:36;;;;;;;12.45;2.42;;;;;;;4.72;77.67;101458.41;4973831;28;20125;-70
2023/03/05 04:21:01;;;;;;;6.65;1.63;;;;;;;4.70;78.13;101450.72;4981577;28;20404;-69
2023/03/05 04:23:26;;;;;;;6.22;1.80;;;;;;;4.70;77.53;101454.97;4972688;28;20041;-70
2023/03/05 04:25:52;;;;;;;6.97;1.90;;;;;;;4.68;78.18;101450.66;4972496;28;20026;-69
2023/03/05 04:28:17;;;;;;;7.05;1.70;;;;;;;4.67;77.72;101440.38;4971371;28;20527;-70
2023/03/05 04:30:43;;;;;;;7.75;2.13;;;;;;;4.68;78.00;101438.69;4968488;28;20716;-69
2023/03/05 04:33:08;;;;;;;6.10;2.38;;;;;;;4.67;77.54;101430.16;4963585;28;20157;-70
2023/03/05 04:35:34;;;;;;;7.60;2.15;;;;;;;4.68;76.74;101423.34;4977026;28;20041;-70
2023/03/05 04:37:59;;;;;;;9.80;2.28;;;;;;;4.67;77.21;101435.28;4970456;28;20086;-70
2023/03/05 04:40:24;;;;;;;6.47;1.92;;;;;;;4.66;76.99;101433.53;4973956;28;20049;-69
2023/03/05 04:42:50;;;;;;;9.05;2.22;;;;;;;4.67;76.99;101432.72;4972879;28;20038;-69
2023/03/05 04:45:16;;;;;;;6.38;2.10;;;;;;;4.66;77.23;101425.84;4980265;28;20050;-69
2023/03/05 04:47:41;;;;;;;7.55;2.15;;;;;;;4.68;76.22;101409.69;4982125;28;20744;-69
2023/03/05 04:50:08;;;;;;;9.93;1.90;;;;;;;4.71;75.52;101403.81;4974139;28;20416;-70
2023/03/05 04:52:33;;;;;;;8.60;2.00;;;;;;;4.70;75.81;101406.31;4974376;28;20046;-69
2023/03/05 04:54:59;;;;;;;4.20;1.38;;;;;;;4.69;75.20;101405.44;4969712;28;20097;-69
2023/03/05 04:57:24;;;;;;;10.18;1.75;;;;;;;4.68;75.47;101402.00;4972895;28;20165;-69
2023/03/05 04:59:49;;;;;;;6.10;1.77;;;;;;;4.68;75.66;101397.72;4975690;28;20428;-69
2023/03/05 05:02:15;;;;;;;7.85;2.00;;;;;;;4.67;76.14;101399.41;4982325;28;20026;-69
2023/03/05 05:04:43;;;;;;;6.05;2.25;;;;;;;4.66;76.17;101405.34;4973881;28;20080;-69
2023/03/05 05:07:10;;;;;;;10.93;2.30;;;;;;;4.63;77.19;101397.59;4975668;28;20149;-70
2023/03/05 05:09:36;;;;;;;6.15;1.98;;;;;;;4.62;76.65;101401.88;4971921;28;20926;-70
2023/03/05 05:12:02;;;;;;;5.97;2.15;;;;;;;4.61;77.00;101406.94;4975926;28;20626;-70
2023/03/05 05:14:27;;;;;;;9.07;2.10;;;;;;;4.59;77.23;101399.25;4972384;28;20058;-69
2023/03/05 05:16:53;;;;;;;9.07;2.45;;;;;;;4.57;77.42;101400.00;4975149;28;20035;-70
2023/03/05 05:19:18;;;;;;;6.72;2.15;;;;;;;4.57;76.69;101408.56;4975374;28;20042;-69
2023/03/05 05:21:43;;;;;;;7.18;2.30;;;;;;;4.54;77.64;101387.13;4982191;28;20099;-69
2023/03/05 05:24:09;;;;;;;5.20;2.25;;;;;;;4.53;77.13;101403.34;4976270;28;20042;-69
2023/03/05 05:26:34;;;;;;;11.55;2.35;;;;;;;4.51;77.60;101395.59;4971423;28;20039;-69
2023/03/05 05:28:59;;;;;;;5.80;2.22;;;;;;;4.51;77.81;101408.38;4971266;28;20039;-69
2023/03/05 05:31:25;;;;;;;10.88;2.40;;;;;;;4.50;77.86;101399.00;4976015;28;20041;-69
2023/03/05 05:33:50;;;;;;;8.80;2.35;;;;;;;4.50;77.62;101398.13;4973304;28;20043;-69
2023/03/05 05:36:21;;;;;;;10.48;2.92;;;;;;;4.47;78.40;101409.16;4971006;28;20066;-69
2023/03/05 05:38:46;;;;;;;10.20;2.30;;;;;;;4.47;78.05;101404.03;4975760;28;20140;-69
2023/03/05 05:41:15;;;;;;;9.98;2.50;;;;;;;4.45;77.56;101397.13;4968896;28;20117;-68
2023/03/05 05:43:40;;;;;;;14.35;2.97;;;;;;;4.44;77.83;101406.53;4973972;28;20031;-69
2023/03/05 05:46:09;;;;;;;9.20;2.33;;;;;;;4.41;78.13;101403.00;4972868;28;20531;-69
2023/03/05 05:48:35;;;;;;;10.32;2.50;;;;;;;4.40;78.47;101394.44;4978561;28;20035;-69
2023/03/05 05:51:23;;;;;;;9.48;2.20;;;;;;;4.41;78.29;101400.44;4976365;28;20616;-69
2023/03/05 05:53:49;;;;;;;6.00;2.30;;;;;;;4.40;79.01;101397.00;4977793;28;20911;-69
2023/03/05 05:56:17;;;;;;;6.40;2.00;;;;;;;4.39;79.45;101407.22;4979558;28;20089;-68
2023/03/05 05:58:46;;;;;;;8.10;2.72;;;;;;;4.37;79.20;101406.28;4978852;28;20026;-68
2023/03/05 06:01:17;;;;;;;6.35;2.30;;;;;;;4.37;79.76;101401.19;4976219;28;20046;-68
2023/03/05 06:03:42;;;;;;;12.57;2.33;;;;;;;4.32;79.83;101392.53;4978620;28;20193;-68
2023/03/05 06:06:12;;;;;;;8.38;2.25;;;;;;;4.32;80.07;101395.09;4974458;28;20046;-68
2023/03/05 06:08:38;;;;;;;8.02;2.47;;;;;;;4.31;79.96;101389.09;4974731;28;20049;-68
2023/03/05 06:11:05;;;;;;;8.02;2.22;;;;;;;4.32;80.34;101398.50;4971727;28;20030;-68
2023/03/05 06:13:30;;;;;;;8.95;2.20;;;;;;;4.30;80.96;101391.63;4968621;28;20034;-68
2023/03/05 06:15:57;;;;;;;6.95;2.30;;;;;;;4.29;80.57;101400.13;4970397;28;20085;-68
2023/03/05 06:18:23;;;;;;;11.63;2.38;;;;;;;4.28;81.51;101398.38;4976840;28;20137;-68
2023/03/05 06:20:57;;;;;;;5.20;2.28;;;;;;;4.28;81.48;101400.94;4973259;28;20044;-68
2023/03/05 06:23:23;;;;;;;10.98;2.53;;;;;;;4.28;81.15;101401.81;4974569;28;20101;-68
2023/03/05 06:25:49;;;;;;;11.23;2.58;;;;;;;4.27;81.38;101407.72;4976971;28;20043;-68
2023/03/05 06:28:14;;;;;;;13.52;2.85;;;;;;;4.26;81.40;101397.47;4969685;28;20045;-69
2023/03/05 06:30:40;;;;;;;11.07;2.60;;;;;;;4.26;81.85;101400.91;4972208;28;20038;-68
2023/03/05 06:33:05;;;;;;;9.50;2.10;;;;;;;4.28;81.15;101401.81;4975802;28;21017;-68
2023/03/05 06:35:32;;;;;;;10.77;2.45;;;;;;;4.29;81.45;101410.34;4970824;28;20655;-69
2023/03/05 06:37:57;;;;;;;10.23;2.45;;;;;;;4.30;81.27;101401.84;4971215;28;20037;-69
2023/03/05 06:40:22;;;;;;;13.30;2.78;;;;;;;4.31;82.00;101401.00;4972275;28;20520;-69
2023/03/05 06:42:48;;;;;;;8.73;2.30;;;;;;;4.31;82.04;101401.88;4974614;28;20046;-69
2023/03/05 06:45:13;;;;;;;10.23;2.58;;;;;;;4.31;81.12;101399.31;4979350;28;20042;-68
2023/03/05 06:47:39;;;;;;;8.05;2.42;;;;;;;4.32;81.84;101401.06;4977086;28;20153;-68
2023/03/05 06:50:07;;;;;;;6.93;2.53;;;;;;;4.34;82.45;101398.53;4978059;28;20046;-69
2023/03/05 06:52:32;;;;;;;10.60;2.40;;;;;;;4.36;82.23;101400.31;4976213;28;20038;-69
2023/03/05 06:54:58;;;;;;;8.98;2.28;;;;;;;4.38;82.57;101392.69;4978197;28;20315;-69
2023/03/05 06:57:23;;;;;;;9.70;2.70;;;;;;;4.40;81.85;101391.03;4978166;28;20392;-69
2023/03/05 06:59:48;;;;;;;9.20;2.40;;;;;;;4.42;81.17;101397.91;4978708;28;20042;-68
2023/03/05 07:02:14;;;;;;;8.50;2.13;;;;;;;4.42;82.14;101397.91;4978719;28;20045;-68
2023/03/05 07:04:40;;;;;;;13.82;4.57;;;;;;;4.42;82.16;101397.91;4960176;28;20042;-69
2023/03/05 07:07:06;;;;;;;8.93;3.20;;;;;;;4.42;81.52;101391.91;4974275;28;20053;-69
2023/03/05 07:09:31;;;;;;;8.77;2.40;;;;;;;4.42;81.94;101395.34;4977654;28;20064;-69
2023/03/05 07:11:56;;;;;;;7.40;2.10;;;;;;;4.43;82.10;101391.09;4977508;28;20078;-68
2023/03/05 07:14:22;;;;;;;10.00;2.65;;;;;;;4.44;82.14;101385.16;4970626;28;20042;-69
2023/03/05 07:16:50;;;;;;;7.40;1.85;;;;;;;4.48;81.34;101379.28;4973342;28;20026;-69
2023/03/05 07:19:15;;;;;;;11.23;2.38;;;;;;;4.54;82.13;101377.75;4971333;28;20046;-69
2023/03/05 07:21:41;;;;;;;9.95;2.25;;;;;;;4.62;80.94;101375.41;4976083;28;20069;-69
2023/03/05 07:24:07;;;;;;;10.70;2.70;;;;;;;4.73;81.13;101362.84;4972188;28;20043;-68
2023/03/05 07:26:33;;;;;;;8.82;2.13;;;;;;;4.81;80.72;101367.34;4976733;28;20046;-68
2023/03/05 07:28:59;;;;;;;8.77;1.98;;;;;;;4.89;80.15;101367.53;4975150;28;20089;-68
2023/03/05 07:31:30;;;;;;;6.30;2.08;;;;;;;4.93;79.84;101359.94;4976118;28;20038;-68
2023/03/05 07:33:57;;;;;;;10.23;2.55;;;;;;;5.00;79.74;101355.84;4977992;28;20050;-68
2023/03/05 07:36:23;;;;;;;13.63;3.28;;;;;;;5.07;80.22;101355.16;4981003;28;20037;-68
2023/03/05 07:38:48;;;;;;;12.23;3.17;;;;;;;5.12;79.37;101346.75;4983972;28;20038;-69
2023/03/05 07:41:20;;;;;;;10.90;3.67;;;;;;;5.19;79.57;101351.16;4974615;28;20130;-69
2023/03/05 07:43:51;;;;;;;10.05;2.88;;;;;;;5.30;79.64;101353.09;4972911;28;20491;-69
2023/03/05 07:46:19;;;;;;;7.18;3.15;;;;;;;5.39;78.97;101356.75;4968530;28;20116;-68
2023/03/05 07:48:44;;;;;;;15.25;3.35;;;;;;;5.42;78.49;101348.25;4969594;28;20042;-68
2023/03/05 07:51:14;;;;;;;6.43;2.95;;;;;;;5.49;78.28;101340.72;4973173;28;20035;-68
2023/03/05 07:53:41;;;;;;;12.30;2.72;;;;;;;5.51;77.88;101335.63;4983284;28;20034;-68
2023/03/05 07:56:07;;;;;;;13.23;3.53;;;;;;;5.56;78.63;101336.59;4977340;28;20085;-69
2023/03/05 07:58:32;;;;;;;11.50;2.58;;;;;;;5.56;78.61;101340.03;4975799;28;20050;-68
2023/03/05 08:00:57;;;;;;;8.63;2.70;;;;;;;5.63;78.09;101335.88;4974189;28;20552;-68
2023/03/05 08:03:23;;;;;;;10.88;3.10;;;;;;;5.70;77.80;101337.72;4978432;28;20085;-69
2023/03/05 08:05:48;;;;;;;12.77;3.70;;;;;;;5.69;77.62;101341.97;4977555;28;20043;-69
2023/03/05 08:08:15;;;;;;;9.45;3.53;;;;;;;5.80;76.91;101329.41;4965238;28;20535;-68
2023/03/05 08:10:41;;;;;;;11.68;4.18;;;;;;;5.78;77.27;101325.94;4972830;28;20034;-69
2023/03/05 08:13:06;;;;;;;16.73;3.58;;;;;;;5.73;77.20;101336.09;4969453;28;20049;-69
2023/03/05 08:15:32;;;;;;;13.10;4.28;;;;;;;5.74;77.02;101326.72;4970798;28;20045;-68
2023/03/05 08:17:58;;;;;;;11.38;3.70;;;;;;;5.70;77.28;101319.78;4975422;28;20436;-69
2023/03/05 08:20:23;;;;;;;13.88;3.58;;;;;;;5.64;76.88;101317.97;4973892;28;21027;-69
2023/03/05 08:22:49;;;;;;;20.35;4.85;;;;;;;5.64;77.65;101328.22;4974770;28;20107;-69
2023/03/05 08:25:15;;;;;;;10.93;3.33;;;;;;;5.65;76.82;101324.81;4972568;28;20484;-69
2023/03/05 08:27:43;;;;;;;14.52;4.07;;;;;;;5.66;76.74;101316.31;4967098;28;20073;-68
2023/03/05 08:30:11;;;;;;;14.80;3.70;;;;;;;5.70;77.12;101319.78;4971315;28;20034;-69
2023/03/05 08:32:37;;;;;;;11.40;4.43;;;;;;;5.69;76.17;101307.81;4976277;28;20551;-68
2023/03/05 08:35:04;;;;;;;11.95;2.95;;;;;;;5.65;75.95;101309.44;4972345;28;20057;-68
2023/03/05 08:37:29;;;;;;;13.15;3.70;;;;;;;5.57;74.70;101294.75;4967802;28;20463;-69
2023/03/05 08:39:55;;;;;;;13.93;3.97;;;;;;;5.50;75.40;101296.31;4972323;28;20034;-68
2023/03/05 08:42:22;;;;;;;9.65;3.30;;;;;;;5.53;75.16;101304.06;4976455;28;20034;-69
2023/03/05 08:44:47;;;;;;;8.15;3.33;;;;;;;5.48;74.39;101289.41;4970184;28;20042;-68
2023/03/05 08:47:12;;;;;;;9.02;3.30;;;;;;;5.51;74.66;101295.47;4973138;28;20030;-67
2023/03/05 08:49:38;;;;;;;14.93;3.58;;;;;;;5.58;75.20;101292.19;4973917;28;20029;-68
2023/03/05 08:52:03;;;;;;;12.60;3.97;;;;;;;5.64;75.12;101291.44;4979066;28;20042;-68
2023/03/05 08:54:29;;;;;;;9.90;3.50;;;;;;;5.68;74.68;101286.41;4974024;28;20049;-69
2023/03/05 08:56:54;;;;;;;12.32;3.72;;;;;;;5.73;75.35;101291.63;4968767;28;20043;-68
2023/03/05 08:59:20;;;;;;;14.77;5.47;;;;;;;5.78;74.54;101287.47;4970126;28;20142;-68
2023/03/05 09:01:45;;;;;;;11.98;3.80;;;;;;;5.82;75.17;101285.81;4969168;28;20033;-68
2023/03/05 09:04:10;;;;;;;10.32;3.80;;;;;;;5.86;74.40;101285.91;4971997;28;20694;-68
2023/03/05 09:06:39;;;;;;;15.77;4.28;;;;;;;5.79;74.84;101282.34;4970203;28;20752;-68
2023/03/05 09:09:06;;;;;;;13.23;4.43;;;;;;;5.77;74.84;101283.16;4972192;28;20149;-68
2023/03/05 09:11:34;;;;;;;13.10;4.38;;;;;;;5.85;75.14;101276.47;4970743;28;20042;-68
2023/03/05 09:14:05;;;;;;;13.65;5.35;;;;;;;5.94;74.28;101276.63;4969890;28;20030;-68
2023/03/05 09:16:30;;;;;;;11.35;4.15;;;;;;;5.98;74.51;101269.88;4971873;28;20054;-68
2023/03/05 09:18:56;;;;;;;12.25;4.15;;;;;;;6.09;74.17;101268.34;4969040;28;20200;-68
2023/03/05 09:21:22;;;;;;;11.98;4.68;;;;;;;6.14;74.07;101264.19;4970484;28;20038;-68
2023/03/05 09:23:47;;;;;;;9.68;4.38;;;;;;;6.12;74.05;101255.56;4974451;28;20038;-68
2023/03/05 09:26:15;;;;;;;11.15;4.32;;;;;;;6.13;73.95;101259.88;4972921;28;20721;-67
2023/03/05 09:28:40;;;;;;;11.68;4.35;;;;;;;6.18;74.00;101261.69;4975140;28;20035;-68
2023/03/05 09:31:07;;;;;;;10.13;5.40;;;;;;;6.17;73.87;101241.97;4974855;28;20038;-68
2023/03/05 09:33:34;;;;;;;12.32;5.25;;;;;;;6.21;73.07;101237.78;4975272;28;20030;-68
2023/03/05 09:36:00;;;;;;;11.00;5.43;;;;;;;6.16;72.88;101244.53;4983880;28;20039;-69
2023/03/05 09:38:27;;;;;;;13.90;4.60;;;;;;;6.16;73.56;101244.53;4975445;28;20065;-68
2023/03/05 09:41:14;;;;;;;11.65;4.18;;;;;;;6.12;73.59;101238.47;4975958;28;20030;-69
2023/03/05 09:44:04;;;;;;;15.52;6.07;;;;;;;6.09;74.56;101256.38;4979285;28;20054;-69
2023/03/05 09:46:45;;;;;;;8.77;4.13;;;;;;;6.10;73.58;101244.44;4975708;28;20038;-68
2023/03/05 09:49:36;;;;;;;14.40;7.43;;;;;;;6.10;73.86;101239.28;4972853;28;20558;-68
2023/03/05 09:52:19;;;;;;;11.65;4.68;;;;;;;6.23;73.77;101243.78;4997842;28;20129;-68
2023/03/05 09:54:49;;;;;;;9.50;4.15;;;;;;;6.29;72.85;101213.06;4999827;28;20030;-68
2023/03/05 09:57:21;;;;;;;13.97;4.23;;;;;;;6.40;72.45;101211.56;4983738;28;20078;-68
2023/03/05 09:59:52;;;;;;;12.07;4.50;;;;;;;6.62;71.64;101190.50;4968611;28;20999;-68
2023/03/05 10:02:32;;;;;;;12.50;4.38;;;;;;;6.79;71.03;101172.75;4973035;28;20034;-68
2023/03/05 10:05:13;;;;;;;11.60;5.25;;;;;;;7.00;69.76;101161.88;4973731;28;20622;-68
2023/03/05 10:07:50;;;;;;;9.60;4.03;;;;;;;7.20;69.20;101153.59;4994504;28;20050;-68
2023/03/05 10:10:30;;;;;;;12.63;3.97;;;;;;;7.28;67.30;101097.97;4976872;28;20053;-68
2023/03/05 10:13:15;;;;;;;11.75;3.53;;;;;;;7.34;66.12;101072.31;4975329;28;20034;-68
2023/03/05 10:15:50;;;;;;;8.82;3.10;;;;;;;7.27;65.58;101067.09;4971125;28;20116;-68
2023/03/05 10:18:30;;;;;;;12.10;3.67;;;;;;;7.24;66.16;101082.53;4979437;28;20492;-68
2023/03/05 10:20:57;;;;;;;8.63;3.90;;;;;;;7.33;67.03;101104.00;4973270;28;20054;-68
2023/03/05 10:23:41;;;;;;;9.52;3.40;;;;;;;7.22;66.42;101079.91;4973945;28;20059;-68
2023/03/05 10:26:51;;;;;;;7.38;2.65;;;;;;;6.96;65.86;101081.31;4971451;28;20540;-68
2023/03/05 10:29:28;;;;;;;4.28;2.40;;;;;;;6.71;67.60;101104.97;4956379;28;20585;-68
2023/03/05 10:32:04;;;;;;;7.68;2.70;;;;;;;6.47;68.75;101132.94;4968394;28;20041;-68
2023/03/05 10:35:08;;;;;;;10.55;3.00;;;;;;;6.28;70.02;101147.19;4989074;28;20050;-68
2023/03/05 10:38:00;;;;;;;6.13;3.13;;;;;;;6.23;70.60;101148.81;4987917;28;20050;-69
2023/03/05 10:40:31;;;;;;;9.07;3.55;;;;;;;6.23;70.68;101159.94;4995817;28;20031;-68
2023/03/05 10:43:18;;;;;;;7.85;3.00;;;;;;;6.25;70.93;101158.28;4989970;28;20103;-68
2023/03/05 10:45:48;;;;;;;5.40;3.17;;;;;;;6.20;70.50;101133.41;4994802;28;20037;-68
2023/03/05 10:48:26;;;;;;;8.02;3.55;;;;;;;6.16;69.68;101127.34;4996022;28;20058;-67
2023/03/05 10:51:18;;;;;;;7.95;3.58;;;;;;;6.17;69.51;101130.78;4991755;28;20042;-67
2023/03/05 10:54:00;;;;;;;9.18;4.70;;;;;;;6.19;69.43;101123.97;4985772;28;20038;-67
2023/03/05 10:56:27;;;;;;;12.98;3.63;;;;;;;6.26;69.10;101116.34;4993726;28;20030;-67
2023/03/05 10:58:53;;;;;;;8.00;3.20;;;;;;;6.34;69.69;101113.91;4995578;28;20041;-67
2023/03/05 11:01:27;;;;;;;8.73;3.97;;;;;;;6.36;68.86;101109.66;4994443;28;20041;-67
2023/03/05 11:04:03;;;;;;;6.87;3.77;;;;;;;6.30;69.55;101102.72;4991724;28;20037;-67
2023/03/05 11:06:32;;;;;;;12.15;4.85;;;;;;;6.31;69.44;101108.75;4997016;28;20411;-67
2023/03/05 11:09:28;;;;;;;16.92;4.22;;;;;;;6.26;69.21;101100.97;4995938;28;20096;-67
2023/03/05 11:12:07;;;;;;;12.13;4.68;;;;;;;6.20;69.02;101095.72;4993635;28;20044;-67
2023/03/05 11:14:34;;;;;;;12.38;4.90;;;;;;;6.21;69.21;101100.03;4985776;28;20042;-67
2023/03/05 11:17:01;;;;;;;10.52;4.40;;;;;;;6.26;69.40;101092.38;4988723;28;20049;-67
2023/03/05 11:19:31;;;;;;;8.98;4.82;;;;;;;6.31;69.66;101101.03;4991271;28;20038;-66
2023/03/05 11:22:17;;;;;;;10.73;4.68;;;;;;;6.26;69.04;101093.25;4990323;28;20554;-67
2023/03/05 11:24:45;;;;;;;9.70;4.53;;;;;;;6.30;68.68;101094.16;4989032;28;20037;-67
2023/03/05 11:27:29;;;;;;;7.00;5.22;;;;;;;6.32;69.55;101102.75;5000337;28;20088;-67
2023/03/05 11:29:55;;;;;;;12.65;5.65;;;;;;;6.29;69.34;101101.00;4987820;28;20048;-67
2023/03/05 11:32:24;;;;;;;10.20;5.63;;;;;;;6.30;69.55;101091.59;4989689;28;20030;-67
2023/03/05 11:34:50;;;;;;;9.93;5.93;;;;;;;6.33;69.08;101092.50;4997146;28;20025;-67